createdAt,value
2022-10-05T00:00:45.717Z,101451.31
2022-10-05T00:01:52.786Z,101447.84
2022-10-05T00:02:56.628Z,101448.78
2022-10-05T00:04:06.244Z,101448.78
2022-10-05T00:05:22.447Z,101454.13
2022-10-05T00:06:27.063Z,101445.28
2022-10-05T00:07:31.111Z,101446.25
2022-10-05T00:08:35.051Z,101445.44
2022-10-05T00:09:37.522Z,101447.22
2022-10-05T00:10:41.064Z,101445.44
2022-10-05T00:11:43.995Z,101445.44
2022-10-05T00:12:46.556Z,101440.09
2022-10-05T00:13:49.076Z,101444.44
2022-10-05T00:14:53.480Z,101439.25
2022-10-05T00:16:00.472Z,101445.44
2022-10-05T00:17:05.053Z,101437.44
2022-10-05T00:18:15.190Z,101439.25
2022-10-05T00:19:23.487Z,101445.44
2022-10-05T00:20:27.460Z,101437.44
2022-10-05T00:21:30.309Z,101440.09
2022-10-05T00:22:34.672Z,101440.91
2022-10-05T00:23:36.260Z,101432.91
2022-10-05T00:24:38.797Z,101431.09
2022-10-05T00:25:40.305Z,101439.09
2022-10-05T00:26:42.898Z,101431.09
2022-10-05T00:27:48.585Z,101432.81
2022-10-05T00:28:52.035Z,101431.09
2022-10-05T00:29:59.896Z,101431.97
2022-10-05T00:31:02.404Z,101432.81
2022-10-05T00:32:04.132Z,101427.47
2022-10-05T00:33:06.786Z,101419.34
2022-10-05T00:34:08.299Z,101423.00
2022-10-05T00:35:11.907Z,101430.88
2022-10-05T00:36:14.250Z,101421.91
2022-10-05T00:37:18.153Z,101426.13
2022-10-05T00:38:19.859Z,101430.63
2022-10-05T00:39:22.327Z,101429.78
2022-10-05T00:40:36.631Z,101419.13
2022-10-05T00:41:50.882Z,101426.13
2022-10-05T00:43:04.735Z,101429.78
2022-10-05T00:44:27.735Z,101427.25
2022-10-05T00:45:33.359Z,101430.88
2022-10-05T00:46:47.237Z,101431.84
2022-10-05T00:48:05.272Z,101423.13
2022-10-05T00:49:19.688Z,101431.09
2022-10-05T00:50:55.124Z,101432.09
2022-10-05T00:52:07.524Z,101430.41
2022-10-05T00:53:24.054Z,101431.34
2022-10-05T00:54:35.597Z,101430.50
2022-10-05T00:55:50.143Z,101431.34
2022-10-05T00:57:21.264Z,101427.13
2022-10-05T00:58:33.034Z,101427.13
2022-10-05T00:59:46.413Z,101422.91
2022-10-05T01:01:00.296Z,101425.56
2022-10-05T01:02:08.890Z,101429.19
2022-10-05T01:03:18.542Z,101424.81
2022-10-05T01:04:26.414Z,101431.84
2022-10-05T01:05:46.514Z,101428.47
2022-10-05T01:07:02.427Z,101426.66
2022-10-05T01:08:16.344Z,101432.09
2022-10-05T01:09:31.330Z,101425.06
2022-10-05T01:10:44.199Z,101430.41
2022-10-05T01:11:55.059Z,101425.06
2022-10-05T01:13:06.681Z,101428.72
2022-10-05T01:14:15.283Z,101420.84
2022-10-05T01:15:27.878Z,101423.63
2022-10-05T01:16:35.630Z,101429.78
2022-10-05T01:17:45.677Z,101420.22
2022-10-05T01:18:54.205Z,101421.09
2022-10-05T01:20:12.674Z,101425.56
2022-10-05T01:21:19.442Z,101424.72
2022-10-05T01:22:37.380Z,101427.38
2022-10-05T01:24:17.407Z,101417.72
2022-10-05T01:25:27.844Z,101416.84
2022-10-05T01:26:55.747Z,101424.00
2022-10-05T01:28:04.806Z,101417.94
2022-10-05T01:29:11.075Z,101414.44
2022-10-05T01:30:16.763Z,101409.22
2022-10-05T01:31:25.463Z,101406.44
2022-10-05T01:32:35.335Z,101403.88
2022-10-05T01:33:43.824Z,101409.34
2022-10-05T01:34:55.002Z,101400.50
2022-10-05T01:36:02.352Z,101395.06
2022-10-05T01:37:12.899Z,101404.84
2022-10-05T01:38:24.296Z,101397.72
2022-10-05T01:39:35.954Z,101396.03
2022-10-05T01:40:45.268Z,101398.81
2022-10-05T01:41:53.732Z,101399.66
2022-10-05T01:43:07.397Z,101398.81
2022-10-05T01:44:14.079Z,101397.97
2022-10-05T01:45:24.081Z,101397.97
2022-10-05T01:46:34.614Z,101405.00
2022-10-05T01:47:43.376Z,101386.44
2022-10-05T01:48:57.935Z,101396.16
2022-10-05T01:50:02.461Z,101396.28
2022-10-05T01:51:12.596Z,101397.97
2022-10-05T01:52:29.395Z,101400.75
2022-10-05T01:53:45.472Z,101394.44
2022-10-05T01:54:58.854Z,101393.63
2022-10-05T01:56:10.779Z,101399.78
2022-10-05T01:57:24.256Z,101401.63
2022-10-05T01:58:39.056Z,101397.97
2022-10-05T01:59:52.303Z,101394.59
2022-10-05T02:01:02.516Z,101390.97
2022-10-05T02:02:07.855Z,101387.44
2022-10-05T02:03:18.229Z,101388.41
2022-10-05T02:04:59.942Z,101388.28
2022-10-05T02:05:57.173Z,101389.25
2022-10-05T02:07:01.895Z,101383.09
2022-10-05T02:08:08.351Z,101386.69
2022-10-05T02:09:16.394Z,101381.38
2022-10-05T02:10:24.831Z,101381.38
2022-10-05T02:11:26.496Z,101385.84
2022-10-05T02:12:33.719Z,101380.53
2022-10-05T02:13:41.590Z,101386.69
2022-10-05T02:14:48.321Z,101374.38
2022-10-05T02:15:54.865Z,101379.56
2022-10-05T02:17:03.060Z,101387.56
2022-10-05T02:18:13.383Z,101385.84
2022-10-05T02:19:21.896Z,101385.84
2022-10-05T02:20:27.663Z,101378.72
2022-10-05T02:21:32.098Z,101374.38
2022-10-05T02:22:36.905Z,101378.84
2022-10-05T02:23:42.407Z,101377.03
2022-10-05T02:24:47.927Z,101373.53
2022-10-05T02:25:53.019Z,101374.38
2022-10-05T02:26:56.490Z,101372.69
2022-10-05T02:28:05.463Z,101376.19
2022-10-05T02:29:12.565Z,101373.53
2022-10-05T02:30:18.135Z,101371.72
2022-10-05T02:31:26.665Z,101373.53
2022-10-05T02:32:35.091Z,101375.19
2022-10-05T02:33:38.324Z,101375.19
2022-10-05T02:34:41.398Z,101376.06
2022-10-05T02:35:44.307Z,101383.94
2022-10-05T02:36:53.018Z,101380.31
2022-10-05T02:38:09.961Z,101374.84
2022-10-05T02:39:20.852Z,101371.31
2022-10-05T02:40:33.143Z,101370.38
2022-10-05T02:41:47.169Z,101362.25
2022-10-05T02:42:59.159Z,101365.75
2022-10-05T02:44:12.041Z,101366.59
2022-10-05T02:45:26.178Z,101362.97
2022-10-05T02:46:36.729Z,101365.50
2022-10-05T02:47:46.160Z,101365.50
2022-10-05T02:48:58.314Z,101361.88
2022-10-05T02:50:07.032Z,101367.91
2022-10-05T02:51:21.208Z,101373.16
2022-10-05T02:52:29.112Z,101364.06
2022-10-05T02:53:38.722Z,101357.75
2022-10-05T02:54:49.664Z,101364.78
2022-10-05T02:56:01.808Z,101358.38
2022-10-05T02:57:10.351Z,101353.75
2022-10-05T02:58:15.934Z,101356.31
2022-10-05T02:59:24.906Z,101351.69
2022-10-05T03:00:32.954Z,101354.25
2022-10-05T03:01:41.158Z,101352.44
2022-10-05T03:02:49.816Z,101352.28
2022-10-05T03:04:00.189Z,101351.31
2022-10-05T03:05:16.040Z,101352.28
2022-10-05T03:06:23.078Z,101347.81
2022-10-05T03:07:30.697Z,101350.47
2022-10-05T03:08:38.809Z,101348.91
2022-10-05T03:09:49.620Z,101355.09
2022-10-05T03:11:00.050Z,101343.69
2022-10-05T03:12:12.081Z,101346.34
2022-10-05T03:13:26.981Z,101339.31
2022-10-05T03:14:38.097Z,101337.50
2022-10-05T03:16:03.870Z,101335.94
2022-10-05T03:17:13.266Z,101338.63
2022-10-05T03:18:30.484Z,101342.25
2022-10-05T03:19:48.712Z,101334.25
2022-10-05T03:21:00.890Z,101335.94
2022-10-05T03:22:12.045Z,101335.09
2022-10-05T03:23:27.981Z,101339.47
2022-10-05T03:24:41.636Z,101335.94
2022-10-05T03:26:01.481Z,101339.31
2022-10-05T03:27:14.388Z,101335.69
2022-10-05T03:28:23.868Z,101338.38
2022-10-05T03:29:34.218Z,101331.13
2022-10-05T03:30:42.964Z,101332.78
2022-10-05T03:31:51.334Z,101331.81
2022-10-05T03:33:03.092Z,101338.84
2022-10-05T03:34:09.048Z,101331.69
2022-10-05T03:35:16.004Z,101321.88
2022-10-05T03:36:28.037Z,101326.25
2022-10-05T03:37:34.759Z,101324.28
2022-10-05T03:38:48.645Z,101321.63
2022-10-05T03:39:57.000Z,101324.28
2022-10-05T03:41:10.573Z,101316.28
2022-10-05T03:42:22.649Z,101317.28
2022-10-05T03:43:50.639Z,101311.97
2022-10-05T03:44:58.454Z,101306.63
2022-10-05T03:46:08.525Z,101304.94
2022-10-05T03:47:21.075Z,101307.69
2022-10-05T03:48:28.983Z,101307.69
2022-10-05T03:49:45.005Z,101304.22
2022-10-05T03:51:02.415Z,101304.22
2022-10-05T03:52:11.322Z,101302.25
2022-10-05T03:53:19.227Z,101305.03
2022-10-05T03:54:25.536Z,101293.44
2022-10-05T03:55:33.685Z,101308.31
2022-10-05T03:56:41.242Z,101302.97
2022-10-05T03:57:43.999Z,101310.72
2022-10-05T03:58:55.473Z,101302.47
2022-10-05T04:00:01.130Z,101293.50
2022-10-05T04:01:11.856Z,101296.91
2022-10-05T04:02:22.791Z,101301.97
2022-10-05T04:03:33.746Z,101292.16
2022-10-05T04:04:40.725Z,101299.91
2022-10-05T04:05:50.133Z,101297.09
2022-10-05T04:06:54.667Z,101297.00
2022-10-05T04:08:03.519Z,101301.22
2022-10-05T04:09:11.669Z,101297.59
2022-10-05T04:10:20.322Z,101295.63
2022-10-05T04:11:27.643Z,101294.66
2022-10-05T04:12:36.847Z,101301.56
2022-10-05T04:13:43.283Z,101296.22
2022-10-05T04:14:49.784Z,101300.44
2022-10-05T04:15:59.654Z,101298.47
2022-10-05T04:17:06.652Z,101295.00
2022-10-05T04:18:21.438Z,101294.00
2022-10-05T04:19:27.501Z,101294.84
2022-10-05T04:20:35.592Z,101294.84
2022-10-05T04:21:46.633Z,101293.03
2022-10-05T04:22:59.407Z,101296.56
2022-10-05T04:24:07.966Z,101293.88
2022-10-05T04:25:16.825Z,101294.84
2022-10-05T04:26:25.910Z,101293.03
2022-10-05T04:27:33.365Z,101293.88
2022-10-05T04:28:45.621Z,101292.06
2022-10-05T04:29:53.554Z,101299.22
2022-10-05T04:30:56.122Z,101297.41
2022-10-05T04:32:12.326Z,101292.94
2022-10-05T04:33:16.297Z,101297.41
2022-10-05T04:34:38.307Z,101291.22
2022-10-05T04:35:53.679Z,101295.59
2022-10-05T04:37:01.257Z,101292.06
2022-10-05T04:38:17.677Z,101294.75
2022-10-05T04:39:28.337Z,101292.06
2022-10-05T04:40:45.319Z,101299.22
2022-10-05T04:42:00.453Z,101297.50
2022-10-05T04:43:09.961Z,101294.84
2022-10-05T04:44:31.646Z,101294.00
2022-10-05T04:45:46.478Z,101294.00
2022-10-05T04:47:04.092Z,101294.00
2022-10-05T04:48:25.681Z,101300.19
2022-10-05T04:49:50.445Z,101294.84
2022-10-05T04:51:05.078Z,101297.50
2022-10-05T04:52:14.988Z,101305.41
2022-10-05T04:53:26.624Z,101303.59
2022-10-05T04:54:44.294Z,101298.25
2022-10-05T04:55:54.642Z,101300.78
2022-10-05T04:56:59.899Z,101307.81
2022-10-05T04:58:11.103Z,101300.66
2022-10-05T04:59:56.102Z,101303.31
2022-10-05T05:01:09.689Z,101305.00
2022-10-05T05:02:20.815Z,101305.00
2022-10-05T05:03:50.638Z,101308.50
2022-10-05T05:05:12.517Z,101305.00
2022-10-05T05:06:30.557Z,101302.31
2022-10-05T05:07:44.868Z,101303.31
2022-10-05T05:09:04.558Z,101302.31
2022-10-05T05:10:29.246Z,101310.31
2022-10-05T05:11:42.631Z,101308.50
2022-10-05T05:12:56.052Z,101306.69
2022-10-05T05:14:18.515Z,101302.22
2022-10-05T05:15:34.403Z,101302.31
2022-10-05T05:16:40.298Z,101305.84
2022-10-05T05:17:56.854Z,101303.06
2022-10-05T05:19:16.814Z,101301.38
2022-10-05T05:20:23.332Z,101301.38
2022-10-05T05:21:37.927Z,101304.75
2022-10-05T05:22:47.611Z,101305.59
2022-10-05T05:23:55.804Z,101311.78
2022-10-05T05:25:18.613Z,101301.94
2022-10-05T05:26:28.595Z,101306.19
2022-10-05T05:27:42.316Z,101307.03
2022-10-05T05:28:50.691Z,101301.81
2022-10-05T05:30:03.020Z,101307.88
2022-10-05T05:31:13.990Z,101309.59
2022-10-05T05:32:23.369Z,101311.25
2022-10-05T05:33:32.833Z,101305.91
2022-10-05T05:34:49.693Z,101309.44
2022-10-05T05:36:10.720Z,101312.94
2022-10-05T05:37:23.533Z,101303.03
2022-10-05T05:38:32.551Z,101308.34
2022-10-05T05:39:42.815Z,101310.91
2022-10-05T05:40:52.426Z,101306.44
2022-10-05T05:42:12.721Z,101309.94
2022-10-05T05:43:24.558Z,101314.28
2022-10-05T05:44:29.187Z,101309.78
2022-10-05T05:45:38.359Z,101308.81
2022-10-05T05:48:18.301Z,101315.00
2022-10-05T05:49:24.837Z,101306.88
2022-10-05T05:50:41.416Z,101311.22
2022-10-05T05:51:50.269Z,101307.59
2022-10-05T05:52:59.680Z,101309.28
2022-10-05T05:54:20.180Z,101309.16
2022-10-05T05:55:29.883Z,101308.31
2022-10-05T05:56:38.452Z,101304.66
2022-10-05T05:57:45.435Z,101307.19
2022-10-05T05:58:53.400Z,101301.84
2022-10-05T06:00:05.431Z,101305.25
2022-10-05T06:01:35.481Z,101304.41
2022-10-05T06:02:43.874Z,101293.75
2022-10-05T06:03:50.598Z,101300.75
2022-10-05T06:04:57.757Z,101304.25
2022-10-05T06:06:05.279Z,101300.47
2022-10-05T06:07:14.786Z,101305.81
2022-10-05T06:08:24.697Z,101305.81
2022-10-05T06:09:33.790Z,101303.88
2022-10-05T06:10:43.303Z,101309.22
2022-10-05T06:11:50.306Z,101310.06
2022-10-05T06:13:00.900Z,101306.41
2022-10-05T06:14:12.225Z,101301.91
2022-10-05T06:15:33.768Z,101300.94
2022-10-05T06:16:40.606Z,101311.47
2022-10-05T06:17:48.077Z,101301.66
2022-10-05T06:18:55.921Z,101303.34
2022-10-05T06:20:05.214Z,101305.91
2022-10-05T06:21:20.585Z,101301.38
2022-10-05T06:22:29.041Z,101308.31
2022-10-05T06:23:44.092Z,101309.13
2022-10-05T06:24:59.328Z,101308.16
2022-10-05T06:26:14.713Z,101312.53
2022-10-05T06:27:26.946Z,101308.84
2022-10-05T06:28:30.661Z,101320.28
2022-10-05T06:29:44.327Z,101312.97
2022-10-05T06:30:57.046Z,101320.00
2022-10-05T06:32:06.064Z,101317.19
2022-10-05T06:33:21.716Z,101309.06
2022-10-05T06:34:49.586Z,101309.91
2022-10-05T06:36:07.905Z,101316.94
2022-10-05T06:37:18.469Z,101308.78
2022-10-05T06:38:44.672Z,101310.50
2022-10-05T06:40:17.714Z,101307.69
2022-10-05T06:41:27.461Z,101311.94
2022-10-05T06:42:56.701Z,101300.25
2022-10-05T06:44:00.596Z,101301.94
2022-10-05T06:45:11.250Z,101302.66
2022-10-05T06:46:19.101Z,101306.06
2022-10-05T06:47:30.018Z,101301.56
2022-10-05T06:48:46.836Z,101311.97
2022-10-05T06:49:54.501Z,101313.53
2022-10-05T06:51:00.859Z,101317.91
2022-10-05T06:52:13.115Z,101307.91
2022-10-05T06:53:31.223Z,101297.94
2022-10-05T06:54:49.753Z,101301.34
2022-10-05T06:55:59.172Z,101300.34
2022-10-05T06:57:10.955Z,101299.38
2022-10-05T06:58:39.241Z,101302.75
2022-10-05T06:59:50.246Z,101301.78
2022-10-05T07:00:57.317Z,101305.88
2022-10-05T07:02:08.978Z,101308.38
2022-10-05T07:03:22.930Z,101314.47
2022-10-05T07:04:41.669Z,101309.97
2022-10-05T07:05:51.459Z,101312.38
2022-10-05T07:07:00.451Z,101301.69
2022-10-05T07:08:08.038Z,101310.53
2022-10-05T07:09:27.581Z,101307.88
2022-10-05T07:10:32.846Z,101315.72
2022-10-05T07:11:55.817Z,101305.91
2022-10-05T07:13:16.017Z,101311.13
2022-10-05T07:14:28.029Z,101302.25
2022-10-05T07:15:41.313Z,101298.59
2022-10-05T07:16:56.070Z,101311.81
2022-10-05T07:18:13.390Z,101301.13
2022-10-05T07:19:29.493Z,101291.31
2022-10-05T07:20:40.113Z,101303.81
2022-10-05T07:21:47.903Z,101298.47
2022-10-05T07:23:13.072Z,101302.84
2022-10-05T07:24:30.143Z,101297.50
2022-10-05T07:25:36.866Z,101293.81
2022-10-05T07:26:46.452Z,101300.88
2022-10-05T07:27:55.663Z,101300.75
2022-10-05T07:29:23.658Z,101297.06
2022-10-05T07:30:26.335Z,101298.78
2022-10-05T07:31:33.370Z,101298.63
2022-10-05T07:32:40.569Z,101300.31
2022-10-05T07:33:48.100Z,101300.03
2022-10-05T07:35:03.865Z,101292.03
2022-10-05T07:36:32.237Z,101302.59
2022-10-05T07:37:54.201Z,101301.59
2022-10-05T07:39:05.073Z,101305.97
2022-10-05T07:40:16.239Z,101297.81
2022-10-05T07:41:23.861Z,101299.50
2022-10-05T07:42:48.967Z,101295.00
2022-10-05T07:44:02.785Z,101301.91
2022-10-05T07:45:14.805Z,101292.09
2022-10-05T07:46:24.717Z,101291.97
2022-10-05T07:47:34.651Z,101292.66
2022-10-05T07:48:51.188Z,101302.38
2022-10-05T07:50:03.964Z,101300.38
2022-10-05T07:51:13.075Z,101299.25
2022-10-05T07:52:19.189Z,101301.81
2022-10-05T07:53:25.998Z,101296.19
2022-10-05T07:54:35.730Z,101297.88
2022-10-05T07:55:44.620Z,101296.63
2022-10-05T07:56:51.968Z,101293.81
2022-10-05T07:58:05.850Z,101297.19
2022-10-05T07:59:15.891Z,101298.88
2022-10-05T08:00:20.732Z,101296.78
2022-10-05T08:01:27.780Z,101294.78
2022-10-05T08:03:56.978Z,101289.19
2022-10-05T08:05:04.049Z,101295.38
2022-10-05T08:06:11.294Z,101288.91
2022-10-05T08:07:17.601Z,101302.00
2022-10-05T08:08:28.023Z,101298.91
2022-10-05T08:09:39.893Z,101297.91
2022-10-05T08:10:49.773Z,101289.78
2022-10-05T08:11:58.295Z,101292.97
2022-10-05T08:13:11.737Z,101292.00
2022-10-05T08:14:20.586Z,101289.22
2022-10-05T08:15:27.270Z,101296.94
2022-10-05T08:16:37.849Z,101286.94
2022-10-05T08:17:48.576Z,101298.38
2022-10-05T08:18:56.940Z,101297.06
2022-10-05T08:20:10.972Z,101291.44
2022-10-05T08:21:17.096Z,101305.38
2022-10-05T08:22:25.795Z,101290.06
2022-10-05T08:23:35.878Z,101295.13
2022-10-05T08:24:44.568Z,101299.31
2022-10-05T08:25:58.126Z,101297.34
2022-10-05T08:27:06.040Z,101290.88
2022-10-05T08:28:12.899Z,101301.13
2022-10-05T08:29:22.786Z,101295.66
2022-10-05T08:30:25.009Z,101299.88
2022-10-05T08:31:33.386Z,101295.22
2022-10-05T08:32:41.069Z,101293.25
2022-10-05T08:33:56.196Z,101290.59
2022-10-05T08:35:04.397Z,101292.13
2022-10-05T08:36:11.581Z,101299.00
2022-10-05T08:37:21.752Z,101295.19
2022-10-05T08:38:31.266Z,101295.91
2022-10-05T08:39:40.013Z,101293.94
2022-10-05T08:41:09.374Z,101288.47
2022-10-05T08:42:41.836Z,101286.66
2022-10-05T08:44:04.532Z,101296.22
2022-10-05T08:45:22.408Z,101292.53
2022-10-05T08:46:40.936Z,101290.56
2022-10-05T08:48:07.315Z,101291.25
2022-10-05T08:49:35.356Z,101293.81
2022-10-05T08:51:08.605Z,101294.66
2022-10-05T08:52:30.172Z,101291.69
2022-10-05T08:53:50.953Z,101290.38
2022-10-05T08:55:37.886Z,101291.09
2022-10-05T08:56:45.233Z,101292.50
2022-10-05T08:58:17.327Z,101292.22
2022-10-05T08:59:58.656Z,101282.19
2022-10-05T09:01:10.174Z,101285.41
2022-10-05T09:02:24.994Z,101295.00
2022-10-05T09:03:49.167Z,101288.50
2022-10-05T09:05:14.281Z,101288.22
2022-10-05T09:06:26.564Z,101289.59
2022-10-05T09:08:00.501Z,101275.91
2022-10-05T09:09:29.153Z,101289.84
2022-10-05T09:11:02.410Z,101281.97
2022-10-05T09:12:46.828Z,101283.38
2022-10-05T09:14:06.081Z,101277.84
2022-10-05T09:15:31.330Z,101278.53
2022-10-05T09:16:48.939Z,101274.88
2022-10-05T09:18:30.547Z,101272.91
2022-10-05T09:19:53.931Z,101276.28
2022-10-05T09:21:02.752Z,101268.78
2022-10-05T09:22:15.907Z,101268.50
2022-10-05T09:23:34.437Z,101280.75
2022-10-05T09:24:53.862Z,101269.03
2022-10-05T09:26:00.422Z,101274.09
2022-10-05T09:27:10.162Z,101273.78
2022-10-05T09:28:23.024Z,101270.81
2022-10-05T09:29:52.824Z,101272.22
2022-10-05T09:31:34.378Z,101268.50
2022-10-05T09:33:25.573Z,101272.59
2022-10-05T09:34:57.087Z,101269.59
2022-10-05T09:36:27.944Z,101272.81
2022-10-05T09:37:49.378Z,101276.06
2022-10-05T09:39:18.604Z,101271.44
2022-10-05T09:40:47.738Z,101266.88
2022-10-05T09:42:02.089Z,101266.75
2022-10-05T09:43:21.305Z,101265.78
2022-10-05T09:44:43.243Z,101266.44
2022-10-05T09:46:08.803Z,101268.13
2022-10-05T09:47:41.411Z,101274.34
2022-10-05T09:49:17.352Z,101268.81
2022-10-05T09:50:50.783Z,101267.97
2022-10-05T09:52:07.740Z,101273.19
2022-10-05T09:53:29.890Z,101265.84
2022-10-05T09:55:05.438Z,101270.22
2022-10-05T09:56:23.510Z,101263.88
2022-10-05T09:58:00.881Z,101261.00
2022-10-05T09:59:37.875Z,101265.22
2022-10-05T10:01:03.799Z,101267.75
2022-10-05T10:02:43.314Z,101263.94
2022-10-05T10:04:13.492Z,101264.59
2022-10-05T10:05:47.039Z,101259.09
2022-10-05T10:07:27.499Z,101257.28
2022-10-05T10:08:43.917Z,101259.66
2022-10-05T10:10:08.743Z,101254.09
2022-10-05T10:11:45.340Z,101258.66
2022-10-05T10:13:09.575Z,101257.50
2022-10-05T10:14:38.186Z,101265.53
2022-10-05T10:16:09.225Z,101256.66
2022-10-05T10:17:48.291Z,101250.31
2022-10-05T10:19:20.794Z,101254.34
2022-10-05T10:20:41.072Z,101255.72
2022-10-05T10:22:22.490Z,101257.09
2022-10-05T10:23:38.878Z,101262.84
2022-10-05T10:25:19.138Z,101257.03
2022-10-05T10:27:07.512Z,101254.69
2022-10-05T10:28:49.388Z,101264.00
2022-10-05T10:30:18.865Z,101256.16
2022-10-05T10:31:46.032Z,101261.88
2022-10-05T10:33:17.824Z,101266.09
2022-10-05T10:34:52.133Z,101256.59
2022-10-05T10:36:07.103Z,101254.97
2022-10-05T10:37:39.695Z,101252.66
2022-10-05T10:38:59.464Z,101255.88
2022-10-05T10:40:26.008Z,101256.22
2022-10-05T10:41:52.393Z,101255.94
2022-10-05T10:43:30.286Z,101259.31
2022-10-05T10:45:07.902Z,101257.59
2022-10-05T10:46:26.470Z,101254.59
2022-10-05T10:47:40.668Z,101246.94
2022-10-05T10:48:58.334Z,101251.00
2022-10-05T10:50:27.205Z,101240.59
2022-10-05T10:52:04.887Z,101239.28
2022-10-05T10:53:23.670Z,101240.66
2022-10-05T10:54:52.706Z,101245.38
2022-10-05T10:56:16.463Z,101234.81
2022-10-05T10:57:32.023Z,101226.94
2022-10-05T10:59:05.368Z,101226.13
2022-10-05T11:00:40.376Z,101227.34
2022-10-05T11:02:02.902Z,101216.91
2022-10-05T11:03:46.806Z,101214.28
2022-10-05T11:05:04.216Z,101214.63
2022-10-05T11:06:21.693Z,101205.91
2022-10-05T11:07:51.333Z,101189.44
2022-10-05T11:09:11.203Z,101198.00
2022-10-05T11:10:47.038Z,101194.16
2022-10-05T11:12:22.767Z,101190.47
2022-10-05T11:14:02.732Z,101184.94
2022-10-05T11:15:23.862Z,101186.44
2022-10-05T11:16:51.653Z,101180.88
2022-10-05T11:18:18.006Z,101179.53
2022-10-05T11:20:03.188Z,101179.38
2022-10-05T11:21:25.535Z,101181.72
2022-10-05T11:23:07.093Z,101179.69
2022-10-05T11:24:32.568Z,101170.47
2022-10-05T11:25:50.472Z,101170.94
2022-10-05T11:27:09.725Z,101163.22
2022-10-05T11:28:39.381Z,101159.88
2022-10-05T11:30:05.031Z,101168.09
2022-10-05T11:31:54.078Z,101161.50
2022-10-05T11:33:35.226Z,101152.91
2022-10-05T11:35:04.907Z,101156.78
2022-10-05T11:36:31.158Z,101147.03
2022-10-05T11:37:51.099Z,101144.34
2022-10-05T11:39:25.280Z,101147.03
2022-10-05T11:40:44.787Z,101149.91
2022-10-05T11:42:16.884Z,101131.56
2022-10-05T11:43:53.928Z,101138.78
2022-10-05T11:45:22.626Z,101137.28
2022-10-05T11:46:29.884Z,101140.63
2022-10-05T11:47:37.023Z,101124.50
2022-10-05T11:48:55.442Z,101126.88
2022-10-05T11:50:11.427Z,101125.19
2022-10-05T11:51:29.566Z,101124.16
2022-10-05T11:52:36.799Z,101125.88
2022-10-05T11:53:43.343Z,101122.19
2022-10-05T11:55:15.872Z,101117.47
2022-10-05T11:56:27.216Z,101114.13
2022-10-05T11:57:37.633Z,101112.28
2022-10-05T11:58:45.794Z,101113.09
2022-10-05T11:59:53.626Z,101114.78
2022-10-05T12:01:01.797Z,101111.94
2022-10-05T12:02:39.996Z,101101.19
2022-10-05T12:03:58.054Z,101105.72
2022-10-05T12:05:10.683Z,101096.81
2022-10-05T12:06:27.316Z,101100.34
2022-10-05T12:07:40.150Z,101097.66
2022-10-05T12:08:53.138Z,101100.34
2022-10-05T12:10:17.460Z,101105.72
2022-10-05T12:11:37.797Z,101098.66
2022-10-05T12:12:48.297Z,101090.59
2022-10-05T12:13:58.736Z,101090.44
2022-10-05T12:15:08.541Z,101090.25
2022-10-05T12:16:19.285Z,101083.88
2022-10-05T12:17:27.961Z,101081.84
2022-10-05T12:18:56.626Z,101071.09
2022-10-05T12:20:04.058Z,101072.78
2022-10-05T12:21:14.740Z,101070.75
2022-10-05T12:22:22.513Z,101054.63
2022-10-05T12:23:33.481Z,101055.47
2022-10-05T12:25:01.500Z,101057.31
2022-10-05T12:26:07.813Z,101049.25
2022-10-05T12:27:16.959Z,101052.63
2022-10-05T12:28:28.590Z,101051.63
2022-10-05T12:29:41.476Z,101049.78
2022-10-05T12:31:11.693Z,101044.41
2022-10-05T12:32:20.121Z,101046.09
2022-10-05T12:33:28.332Z,101045.78
2022-10-05T12:34:47.637Z,101038.53
2022-10-05T12:35:56.890Z,101041.22
2022-10-05T12:37:05.940Z,101034.00
2022-10-05T12:38:17.596Z,101033.81
2022-10-05T12:39:27.881Z,101038.19
2022-10-05T12:40:40.431Z,101035.50
2022-10-05T12:41:50.419Z,101024.41
2022-10-05T12:43:01.224Z,101029.47
2022-10-05T12:44:17.243Z,101023.06
2022-10-05T12:45:27.359Z,101023.72
2022-10-05T12:46:39.551Z,101027.94
2022-10-05T12:48:02.065Z,101022.19
2022-10-05T12:49:38.773Z,101027.44
2022-10-05T12:50:42.655Z,101021.03
2022-10-05T12:51:56.731Z,101012.63
2022-10-05T12:53:23.201Z,101016.97
2022-10-05T12:54:37.927Z,101015.13
2022-10-05T12:55:47.189Z,101005.91
2022-10-05T12:56:55.395Z,101007.56
2022-10-05T12:58:06.504Z,101000.19
2022-10-05T12:59:20.290Z,101001.84
2022-10-05T13:00:23.453Z,101004.53
2022-10-05T13:01:36.235Z,100998.16
2022-10-05T13:02:43.587Z,100993.59
2022-10-05T13:03:52.494Z,100987.03
2022-10-05T13:05:05.252Z,100990.38
2022-10-05T13:06:17.432Z,100993.06
2022-10-05T13:07:33.375Z,100984.00
2022-10-05T13:08:45.892Z,100983.66
2022-10-05T13:09:55.867Z,100977.28
2022-10-05T13:11:04.833Z,100982.31
2022-10-05T13:12:19.010Z,100974.88
2022-10-05T13:13:34.286Z,100976.56
2022-10-05T13:14:51.629Z,100972.53
2022-10-05T13:16:01.219Z,100975.03
2022-10-05T13:17:11.111Z,100970.13
2022-10-05T13:18:20.553Z,100967.28
2022-10-05T13:19:35.269Z,100965.25
2022-10-05T13:20:45.786Z,100955.97
2022-10-05T13:22:05.172Z,100960.34
2022-10-05T13:23:18.269Z,100963.88
2022-10-05T13:24:23.884Z,100963.69
2022-10-05T13:25:32.547Z,100959.00
2022-10-05T13:26:38.795Z,100954.25
2022-10-05T13:27:44.885Z,100954.09
2022-10-05T13:28:55.531Z,100954.75
2022-10-05T13:30:03.884Z,100949.19
2022-10-05T13:31:13.354Z,100951.53
2022-10-05T13:32:19.851Z,100946.16
2022-10-05T13:33:32.719Z,100954.22
2022-10-05T13:34:40.146Z,100948.66
2022-10-05T13:35:48.291Z,100942.13
2022-10-05T13:37:03.853Z,100948.16
2022-10-05T13:38:17.582Z,100947.97
2022-10-05T13:39:36.396Z,100948.81
2022-10-05T13:40:44.842Z,100947.81
2022-10-05T13:41:55.440Z,100945.13
2022-10-05T13:43:03.888Z,100949.50
2022-10-05T13:44:18.458Z,100945.13
2022-10-05T13:45:23.625Z,100947.81
2022-10-05T13:46:33.142Z,100949.50
2022-10-05T13:47:41.984Z,100951.16
2022-10-05T13:49:01.136Z,100945.59
2022-10-05T13:50:14.860Z,100939.03
2022-10-05T13:51:21.981Z,100947.09
2022-10-05T13:52:34.657Z,100939.88
2022-10-05T13:53:46.220Z,100938.84
2022-10-05T13:54:55.755Z,100941.34
2022-10-05T13:56:00.994Z,100942.03
2022-10-05T13:57:17.074Z,100949.06
2022-10-05T13:58:29.267Z,100946.59
2022-10-05T13:59:37.957Z,100938.31
2022-10-05T14:00:49.366Z,100947.91
2022-10-05T14:01:58.257Z,100945.03
2022-10-05T14:03:01.854Z,100942.16
2022-10-05T14:04:16.979Z,100934.72
2022-10-05T14:05:21.061Z,100946.16
2022-10-05T14:06:30.181Z,100948.69
2022-10-05T14:07:34.986Z,100944.28
2022-10-05T14:08:49.913Z,100946.00
2022-10-05T14:09:51.969Z,100948.69
2022-10-05T14:10:56.001Z,100938.91
2022-10-05T14:12:15.335Z,100944.28